createdAt,value
2023-03-23T16:01:53.187Z,46.23
2023-03-23T16:06:54.489Z,47.21
2023-03-23T16:11:55.961Z,47.52
2023-03-23T16:16:57.692Z,47.51
2023-03-23T16:21:59.240Z,48.16
2023-03-23T16:27:00.592Z,48.10
2023-03-23T16:32:01.959Z,47.89
2023-03-23T16:37:03.281Z,47.82
2023-03-23T16:42:04.595Z,47.65
2023-03-23T16:47:06.014Z,47.79
2023-03-23T16:52:07.246Z,47.97
2023-03-23T16:57:08.726Z,47.50
2023-03-23T17:02:10.283Z,47.62
2023-03-23T17:07:11.478Z,48.06
2023-03-23T17:12:12.732Z,50.48
2023-03-23T17:17:16.965Z,50.12
2023-03-23T17:22:18.171Z,50.84
2023-03-23T17:27:21.946Z,51.81
2023-03-23T17:32:26.517Z,52.21
2023-03-23T17:37:27.752Z,56.76
2023-03-23T17:42:29.003Z,56.17
2023-03-23T17:47:30.542Z,54.51
2023-03-23T17:52:31.894Z,53.71
2023-03-23T17:57:33.500Z,57.75
2023-03-23T18:02:34.956Z,56.75
2023-03-23T18:07:36.274Z,57.84
2023-03-23T18:12:37.521Z,56.87
2023-03-23T18:17:38.786Z,58.26
2023-03-23T18:22:40.178Z,58.53
2023-03-23T18:27:41.476Z,60.08
2023-03-23T18:32:42.847Z,58.75
2023-03-23T18:37:44.199Z,60.30
2023-03-23T18:42:46.518Z,61.00
2023-03-23T18:47:48.763Z,60.92
2023-03-23T18:58:36.580Z,61.49
2023-03-23T19:04:06.668Z,61.37
2023-03-23T19:09:09.028Z,61.71
2023-03-23T19:14:10.356Z,64.69
2023-03-23T19:19:11.652Z,64.79
2023-03-23T19:24:12.896Z,65.12
2023-03-23T19:34:19.384Z,65.73
2023-03-23T19:39:20.660Z,66.69
2023-03-23T19:44:21.917Z,68.29
2023-03-23T19:49:23.192Z,68.00
2023-03-23T19:54:24.495Z,67.56
2023-03-23T19:59:25.769Z,66.77
2023-03-23T20:04:27.232Z,65.72
2023-03-23T20:09:30.190Z,66.73
2023-03-23T20:14:32.560Z,66.50
2023-03-23T20:24:38.360Z,67.75
2023-03-23T20:29:39.714Z,69.41
2023-03-23T20:34:41.155Z,68.83
2023-03-23T20:39:42.755Z,68.78
2023-03-23T20:44:44.108Z,68.18
2023-03-23T20:49:53.078Z,68.97
2023-03-23T20:54:55.074Z,67.95
2023-03-23T20:59:56.484Z,67.91
2023-03-23T21:04:58.243Z,67.48
2023-03-23T21:09:59.535Z,66.72
2023-03-23T21:15:01.002Z,66.25
2023-03-23T21:20:07.732Z,65.41
2023-03-23T21:25:10.078Z,65.59
2023-03-23T21:30:11.360Z,67.94
2023-03-23T21:35:12.644Z,67.59
2023-03-23T21:40:14.064Z,67.67
2023-03-23T21:45:20.961Z,66.26
2023-03-23T21:50:24.333Z,68.43
2023-03-23T21:55:29.570Z,68.92
2023-03-23T22:00:30.806Z,68.44
2023-03-23T22:05:32.068Z,66.82
2023-03-23T22:10:33.366Z,65.93
2023-03-23T22:15:34.619Z,68.58
2023-03-23T22:20:35.907Z,68.63
2023-03-23T22:25:37.360Z,68.81
2023-03-23T22:30:39.599Z,69.04
2023-03-23T22:35:40.894Z,68.59
2023-03-23T22:40:42.597Z,67.42
2023-03-23T22:45:43.939Z,68.90
2023-03-23T22:50:46.139Z,67.89
2023-03-23T22:55:47.594Z,67.84
2023-03-23T23:00:49.572Z,68.28
2023-03-23T23:05:53.957Z,68.03
2023-03-23T23:10:56.008Z,67.77
2023-03-23T23:15:58.161Z,68.15
2023-03-23T23:20:59.679Z,67.73
2023-03-23T23:26:01.436Z,67.39
2023-03-23T23:31:02.837Z,67.63
2023-03-23T23:36:04.250Z,67.63
2023-03-23T23:41:05.912Z,67.75
2023-03-23T23:46:07.256Z,67.65
2023-03-23T23:51:08.555Z,67.10
2023-03-23T23:56:09.834Z,67.04
